18°C Temp
16°C Dewpoint
88% Humidity
Temperature
2 KM/H
1 MPH
1 KTS
Calm
Due North

Wind Speed
Light Rain
Showers
Pressure 1015.92 (hPa) - 30 (in)
Visibility 5.6 (mi) - 9.0 (km)

Current Conditions
LSZA
Location Lugano 50 (km)
Metar :LSZA 220850Z VRB01KT 9000 -RA FEW006 BKN100 18/16 Q1016 NOSIG
Tue 22nd September 09:50 am

Airport
  Metar Aviation API Data Provided by https://www.checkwx.com/ PHP scripts by weather34.com ©2020